Brighton, MI

3:50 PM EST on November 26, 2014 (GMT -0500)
Fonda Lake | Change Station
CLOSE
Current Station
Personal Weather Station
Location: Brighton, MI
Elevation: 897 ft
Nearby Weather Stations

Elev 897 ft 42.51 °N, 83.75 °W | Updated 13 seconds ago

Overcast
Overcast
32.2 °F
Feels Like 32 °F
N
2.0
Wind Variable Wind from NW
Gusts 4.0 mph

Today
High -- | Low -- °F
--% Chance of Precip.
Yesterday
High -- | Low -- °F
Precip. -- in
7:39 AM 5:04 PM
Waxing Crescent, 22% visible
Pressure 30.11 in
Visibility 10.0 miles
Clouds Overcast 3700 ft
Windchill 32 °F
Dew Point 22 °F
Humidity 67%
Rainfall 0.00 in
Snow Depth Not available.
UV 0.0 out of 12
Pollen .10 out of 12
Air Quality Not available.
Flu Activity Not available.
METAR KPTK 261953Z 05005KT 10SM OVC037 00/M06 A3008 RMK AO2 SLP196 T00001061

More Conditions Fewer Conditions

Pressure 30.11 in
Visibility 10.0 miles
Clouds Overcast 3700 ft
Windchill 32 °F
Dew Point 22 °F
Humidity 67%
Rainfall 0.00 in
Snow Depth Not available.
UV 0.0 out of 12
Pollen .10 out of 12
Air Quality Not available.
Flu Activity Not available.
METAR KPTK 261953Z 05005KT 10SM OVC037 00/M06 A3008 RMK AO2 SLP196 T00001061

More Conditions Fewer Conditions

10-Day Weather Forecast

Almanac

Astronomy

Nov. 26, 2014 Rise Set
Actual Time
Civil Twilight
Nautical Twilight
Astronomical Twilight
Moon
Length of Visible Light
Length of Day
Tomorrow will be .
, % of the Moon is Illuminated

Today's Extremes

State Highs State Lows

Community

WunderPhotos

Upload Photos

1,773,860 photos uploaded!

WunderBlogs® & News

Nearby

Air Quality

  Air Quality AQ Index Pollutant
Not available.

Snow Depth

Station Depth Elevation

Earthquake Activity

City Distance Mag. Time & Date
Minimum magnitude displayed is 2.5.

Coastal Water Temperatures

Place Temperature

Nearby Weather Stations